createdAt,value
2023-05-10T19:19:26.211Z,100199.53
2023-05-10T19:21:55.633Z,100199.71
2023-05-10T19:24:24.996Z,100198.67
2023-05-10T19:26:52.085Z,100195.39
2023-05-10T19:29:18.810Z,100201.55
2023-05-10T19:31:46.527Z,100203.30
2023-05-10T19:34:13.541Z,100200.88
2023-05-10T19:36:40.297Z,100206.27
2023-05-10T19:39:06.987Z,100209.63
2023-05-10T19:41:33.666Z,100201.59
2023-05-10T19:44:00.394Z,100208.41
2023-05-10T19:54:03.908Z,100214.23
2023-05-10T19:56:30.784Z,100211.26
2023-05-10T19:58:57.688Z,100214.21
2023-05-10T20:01:24.463Z,100212.69
2023-05-10T20:03:51.553Z,100209.70
2023-05-10T20:06:18.305Z,100212.56
2023-05-10T20:08:45.068Z,100215.13
2023-05-10T20:11:12.174Z,100213.99
2023-05-10T20:13:38.891Z,100210.92
2023-05-10T20:16:06.800Z,100210.77
2023-05-10T20:18:33.729Z,100209.70
2023-05-10T20:21:00.539Z,100214.44
2023-05-10T20:23:27.505Z,100216.02
2023-05-10T20:25:54.810Z,100213.36
2023-05-10T20:28:23.157Z,100212.54
2023-05-10T20:30:54.832Z,100214.38
2023-05-10T20:33:22.301Z,100211.30
2023-05-10T20:35:50.343Z,100211.35
2023-05-10T20:38:18.337Z,100209.27
2023-05-10T20:40:45.102Z,100209.40
2023-05-10T20:43:12.072Z,100210.34
2023-05-10T20:45:38.845Z,100209.04
2023-05-10T20:48:05.816Z,100208.46
2023-05-10T20:50:32.534Z,100205.46
2023-05-10T20:53:00.884Z,100206.64
2023-05-10T20:55:28.309Z,100209.66
2023-05-10T20:57:54.991Z,100211.79
2023-05-10T21:00:21.707Z,100209.62
2023-05-10T21:02:48.401Z,100205.83
2023-05-10T21:05:15.556Z,100207.80
2023-05-10T21:07:42.379Z,100213.94
2023-05-10T21:10:10.616Z,100209.04
2023-05-10T21:12:37.437Z,100212.93
2023-05-10T21:15:04.526Z,100211.46
2023-05-10T21:17:31.242Z,100208.13
2023-05-10T21:19:58.024Z,100205.70
2023-05-10T21:22:24.637Z,100208.98
2023-05-10T21:24:51.603Z,100206.10
2023-05-10T21:27:18.348Z,100207.53
2023-05-10T21:29:45.930Z,100213.34
2023-05-10T21:32:12.691Z,100211.25
2023-05-10T21:34:39.500Z,100211.39
2023-05-10T21:37:06.514Z,100212.32
2023-05-10T21:39:33.140Z,100209.81
2023-05-10T21:42:00.386Z,100211.05
2023-05-10T21:44:27.022Z,100211.18
2023-05-10T21:46:53.718Z,100205.86
2023-05-10T21:49:20.410Z,100210.31
2023-05-10T21:51:47.401Z,100209.33
2023-05-10T21:54:14.136Z,100207.87
2023-05-10T21:56:40.827Z,100210.73
2023-05-10T21:59:07.625Z,100207.80
2023-05-10T22:01:34.319Z,100208.81
2023-05-10T22:04:00.983Z,100210.07
2023-05-10T22:06:27.609Z,100206.92
2023-05-10T22:08:54.470Z,100214.48
2023-05-10T22:11:21.989Z,100215.95
2023-05-10T22:13:48.684Z,100213.96
2023-05-10T22:16:15.644Z,100215.80
2023-05-10T22:18:43.233Z,100214.59
2023-05-10T22:21:10.616Z,100216.15
2023-05-10T22:23:37.397Z,100213.59
2023-05-10T22:26:04.150Z,100212.95
2023-05-10T22:28:30.830Z,100215.07
2023-05-10T22:30:57.537Z,100217.75
2023-05-10T22:33:24.324Z,100215.08
2023-05-10T22:35:51.222Z,100218.16
2023-05-10T22:38:17.894Z,100220.02
2023-05-10T22:40:44.500Z,100218.49
2023-05-10T22:43:11.100Z,100217.69
2023-05-10T22:45:38.157Z,100216.04
2023-05-10T22:48:05.312Z,100216.13
2023-05-10T22:50:32.185Z,100213.00
2023-05-10T22:52:58.881Z,100212.67
2023-05-10T22:55:25.725Z,100213.30
2023-05-10T22:57:53.186Z,100211.69
2023-05-10T23:00:20.293Z,100214.54
2023-05-10T23:02:47.247Z,100212.27
2023-05-10T23:05:14.086Z,100209.06
2023-05-10T23:07:40.822Z,100211.74
2023-05-10T23:10:08.328Z,100211.09
2023-05-10T23:12:35.079Z,100217.77
2023-05-10T23:15:01.818Z,100219.42
2023-05-10T23:17:28.579Z,100218.44
2023-05-10T23:19:55.496Z,100218.33
2023-05-10T23:22:22.094Z,100218.27
2023-05-10T23:24:48.794Z,100218.33
2023-05-10T23:27:15.486Z,100217.14
2023-05-10T23:29:42.120Z,100219.56
2023-05-10T23:32:08.811Z,100225.34
2023-05-10T23:34:35.570Z,100223.65
2023-05-10T23:37:02.472Z,100228.90
2023-05-10T23:39:29.093Z,100225.35
2023-05-10T23:41:55.973Z,100226.28
2023-05-10T23:44:22.652Z,100227.59
2023-05-10T23:46:49.349Z,100228.28
2023-05-10T23:49:17.324Z,100230.94
2023-05-10T23:51:44.084Z,100230.75
2023-05-10T23:54:10.771Z,100226.73
2023-05-10T23:56:37.597Z,100231.23
2023-05-10T23:59:06.102Z,100232.71
